Aérodrome :
LOGIN :

S'inscrire | Disclaimer

   EN    FR    IT 

 










Légende :    VFR   VFR Marginal   IFR   IFR Intensif   IFR Très Intensif
Visi : 
Plafond : 
>= 8 km
>= 3000ft
5 à 8 km
1000 à 3000 ft
1500m à 5 km
500 à 1000 ft
800 à 1500m
200 à 500 ft
< 800m
< 200 ft
Symboles :   Orages  Brouillard  Fortes neiges  Fortes précipitations  Vent > 20 kt
SIGMETs :   Divers  Orages  Givrage  Turbulence  Onde Orograph.  Cendres Volcan.







- Altitude de l'aérodrome : 465 ft
- Code IATA : LEJ


EDDP - Leipzig Halle

DERNIER METAR :
  • 211720Z 26011KT 9999 BKN033 09/05 Q1024 NOSIG

METARs EXPIRÉS :
  • 211650Z 26013KT 9999 BKN035 09/05 Q1024 NOSIG
  • 211620Z 27010KT 9999 BKN035 09/06 Q1024 NOSIG
  • 211550Z 27016KT 9999 BKN040 10/04 Q1024 NOSIG
  • 211520Z 26017KT 9999 BKN040 11/04 Q1024 NOSIG
  • 211450Z 26015KT 9999 BKN040 11/04 Q1024 NOSIG

TAF TAF EDDP
Valide du 21 à 12h jusqu'au 22 à 12h UTC


211100Z 2112/2212 27013KT 9999 SCT030
BECMG 2121/2124 33013KT BKN011
TEMPO 2121/2212 4500 -RADZ BKN008
BECMG 2209/2212 04012KT BKN015
Pas de NOTAMs connus pour ce terrain.



MET'MAP, la Météo Aéronautique d'un coup d'oeil ! - Copyright ORBIFLY Décembre 2007 - Disclaimer

ORBIFLY MET'MAP TEAM :

Programmation & Développement : Alexandra Zaïnal
Conception & Développement : Baudouin d'Aumeries
Co-Programmation & Développement : Marc-Olivier Méhu
Soutien technique & logistique : Manuel Goepfert

Contact : metmap@orbifly.com




SOURCES & CREDITS :

   NOAA